Philadelphia, PA

11:37 PM EDT on September 01, 2014 (GMT -0400)
Philadelphia International | Change Station
CLOSE
Current Station
Airport
Location: Philadelphia,
Elevation: 26 ft
Nearby Weather Stations

Elev 26 ft 39.87 °N, 75.23 °W | Updated 43 minutes ago

Scattered Clouds
Scattered Clouds
79 °F
Feels Like 79 °F
N
6
Wind Variable Wind from WSW

Today
High -- | Low -- °F
--% Chance of Precip.
Yesterday
High -- | Low -- °F
Precip. -- in
6:28 AM 7:32 PM
Waxing Crescent, 47% visible
Pressure 29.97 in
Visibility 10.0 miles
Clouds Few 15000 ft
Few 20000 ft
Scattered Clouds 28000 ft
Dew Point 73 °F
Humidity 82%
Rainfall 0.10 in
Snow Depth Not available.
UV 0 out of 12
Pollen 4.30 out of 12
Ozone Good
PM2.5 Good
Flu Activity Not available.
METAR KPHL 020254Z 25005KT 10SM FEW150 FEW200 SCT280 26/23 A2997 RMK AO2 SLP148 T02610228 53007

More Conditions Fewer Conditions

Pressure 29.97 in
Visibility 10.0 miles
Clouds Few 15000 ft
Few 20000 ft
Scattered Clouds 28000 ft
Dew Point 73 °F
Humidity 82%
Rainfall 0.10 in
Snow Depth Not available.
UV 0 out of 12
Pollen 4.30 out of 12
Ozone Good
PM2.5 Good
Flu Activity Not available.
METAR KPHL 020254Z 25005KT 10SM FEW150 FEW200 SCT280 26/23 A2997 RMK AO2 SLP148 T02610228 53007

More Conditions Fewer Conditions

10-Day Weather Forecast

Almanac

Astronomy

Sep. 01, 2014 Rise Set
Actual Time 6:28 AM EDT 7:32 PM EDT
Civil Twilight 6:01 AM EDT 7:59 PM EDT
Nautical Twilight 5:28 AM EDT 8:32 PM EDT
Astronomical Twilight 4:53 AM EDT 9:07 PM EDT
Moon 1:11 PM EDT (9/1) 11:32 PM EDT (9/1)
Length of Visible Light 13h 58m
Length of Day
13h 03m
Tomorrow will be 2m 31s shorter.
Waxing Crescent, 47% of the Moon is Illuminated
Today
Waxing Crescent
Sep 2
First Quarter
Sep 8
Full
Sep 15
Last Quarter
Sep 24
New

Today's Extremes

State Highs State Lows

Community

WunderPhotos

Upload Photos

1,749,555 photos uploaded!

WunderBlogs® & News

Nearby

Air Quality

  Air Quality AQ Index Pollutant
Yesterday Moderate
PM2.5
Yesterday Good
OZONE
Current Good
PM2.5
Current Good
OZONE
Monday Moderate
PM2.5
Monday Good
OZONE
Tuesday Moderate
OZONE
Tuesday Moderate
PM2.5
Wednesday Moderate
OZONE
Wednesday Good
PM2.5
Thursday Moderate
OZONE
Thursday Moderate
PM2.5

Snow Depth

Station Depth Elevation
No new snow has been reported.

Earthquake Activity

City Distance Mag. Time & Date
No recent earthquake activity has been reported nearby.
Minimum magnitude displayed is 2.5.

Coastal Water Temperatures

Place Temperature
Ship John Shoal, NJ 78.1 °F
Cape May, NJ 80.1 °F
Reedy Point, DE 79.0 °F
Delaware City, DE 80.1 °F
Marcus Hook, PA 79.0 °F

Nearby Weather Stations